sensor_id;sensor_type;location;lat;lon;timestamp;P1;durP1;ratioP1;P2;durP2;ratioP2
79728;SDS011;69218;52.132;5.418;2023-04-24T00:00:43;3.88;;;0.68;;
79728;SDS011;69218;52.132;5.418;2023-04-24T00:03:11;1.10;;;0.60;;
79728;SDS011;69218;52.132;5.418;2023-04-24T00:05:38;1.25;;;0.43;;
79728;SDS011;69218;52.132;5.418;2023-04-24T00:08:06;1.90;;;0.60;;
79728;SDS011;69218;52.132;5.418;2023-04-24T00:10:32;1.70;;;0.65;;
79728;SDS011;69218;52.132;5.418;2023-04-24T00:12:59;1.30;;;0.50;;
79728;SDS011;69218;52.132;5.418;2023-04-24T00:15:25;1.35;;;0.40;;
79728;SDS011;69218;52.132;5.418;2023-04-24T00:17:52;1.20;;;0.50;;
79728;SDS011;69218;52.132;5.418;2023-04-24T00:20:19;2.08;;;0.70;;
79728;SDS011;69218;52.132;5.418;2023-04-24T00:22:46;1.77;;;0.63;;
79728;SDS011;69218;52.132;5.418;2023-04-24T00:25:12;3.33;;;0.80;;
79728;SDS011;69218;52.132;5.418;2023-04-24T00:27:40;1.58;;;0.80;;
79728;SDS011;69218;52.132;5.418;2023-04-24T00:30:06;1.80;;;0.73;;
79728;SDS011;69218;52.132;5.418;2023-04-24T00:32:33;1.77;;;0.65;;
79728;SDS011;69218;52.132;5.418;2023-04-24T00:34:59;2.05;;;1.10;;
79728;SDS011;69218;52.132;5.418;2023-04-24T00:37:26;1.67;;;0.63;;
79728;SDS011;69218;52.132;5.418;2023-04-24T00:39:53;1.85;;;0.98;;
79728;SDS011;69218;52.132;5.418;2023-04-24T00:42:19;3.42;;;0.80;;
79728;SDS011;69218;52.132;5.418;2023-04-24T00:44:46;2.20;;;0.82;;
79728;SDS011;69218;52.132;5.418;2023-04-24T00:47:13;2.50;;;0.90;;
79728;SDS011;69218;52.132;5.418;2023-04-24T00:49:40;1.67;;;0.75;;
79728;SDS011;69218;52.132;5.418;2023-04-24T00:52:07;2.58;;;1.00;;
79728;SDS011;69218;52.132;5.418;2023-04-24T00:54:35;1.80;;;0.88;;
79728;SDS011;69218;52.132;5.418;2023-04-24T00:57:05;2.72;;;1.00;;
79728;SDS011;69218;52.132;5.418;2023-04-24T00:59:31;3.25;;;1.00;;
79728;SDS011;69218;52.132;5.418;2023-04-24T01:01:59;2.10;;;1.02;;
79728;SDS011;69218;52.132;5.418;2023-04-24T01:04:25;2.70;;;1.27;;
79728;SDS011;69218;52.132;5.418;2023-04-24T01:06:52;2.83;;;1.30;;
79728;SDS011;69218;52.132;5.418;2023-04-24T01:09:21;2.80;;;1.38;;
79728;SDS011;69218;52.132;5.418;2023-04-24T01:11:49;6.72;;;1.58;;
79728;SDS011;69218;52.132;5.418;2023-04-24T01:14:16;4.30;;;1.40;;
79728;SDS011;69218;52.132;5.418;2023-04-24T01:16:43;3.42;;;1.70;;
79728;SDS011;69218;52.132;5.418;2023-04-24T01:19:10;2.60;;;1.40;;
79728;SDS011;69218;52.132;5.418;2023-04-24T01:21:38;2.72;;;1.35;;
79728;SDS011;69218;52.132;5.418;2023-04-24T01:24:05;3.53;;;1.80;;
79728;SDS011;69218;52.132;5.418;2023-04-24T01:26:33;3.28;;;1.67;;
79728;SDS011;69218;52.132;5.418;2023-04-24T01:29:00;2.97;;;1.50;;
79728;SDS011;69218;52.132;5.418;2023-04-24T01:31:27;3.90;;;1.67;;
79728;SDS011;69218;52.132;5.418;2023-04-24T01:33:54;2.95;;;1.52;;
79728;SDS011;69218;52.132;5.418;2023-04-24T01:36:22;3.05;;;1.77;;
79728;SDS011;69218;52.132;5.418;2023-04-24T01:38:52;3.38;;;1.83;;
79728;SDS011;69218;52.132;5.418;2023-04-24T01:41:18;2.97;;;1.73;;
79728;SDS011;69218;52.132;5.418;2023-04-24T01:43:46;3.97;;;1.80;;
79728;SDS011;69218;52.132;5.418;2023-04-24T01:46:13;2.83;;;1.42;;
79728;SDS011;69218;52.132;5.418;2023-04-24T01:48:39;3.67;;;1.83;;
79728;SDS011;69218;52.132;5.418;2023-04-24T01:51:09;2.75;;;1.33;;
79728;SDS011;69218;52.132;5.418;2023-04-24T01:53:35;5.15;;;1.73;;
79728;SDS011;69218;52.132;5.418;2023-04-24T01:56:02;3.83;;;2.03;;
79728;SDS011;69218;52.132;5.418;2023-04-24T01:58:29;3.75;;;1.65;;
79728;SDS011;69218;52.132;5.418;2023-04-24T02:00:58;5.63;;;2.20;;
79728;SDS011;69218;52.132;5.418;2023-04-24T02:03:26;4.35;;;2.38;;
79728;SDS011;69218;52.132;5.418;2023-04-24T02:05:53;4.13;;;2.15;;
79728;SDS011;69218;52.132;5.418;2023-04-24T02:08:19;3.90;;;2.08;;
79728;SDS011;69218;52.132;5.418;2023-04-24T02:10:46;4.10;;;2.08;;
79728;SDS011;69218;52.132;5.418;2023-04-24T02:13:12;3.90;;;1.98;;
79728;SDS011;69218;52.132;5.418;2023-04-24T02:15:39;3.45;;;1.55;;
79728;SDS011;69218;52.132;5.418;2023-04-24T02:18:05;3.72;;;2.00;;
79728;SDS011;69218;52.132;5.418;2023-04-24T02:20:32;3.75;;;2.00;;
79728;SDS011;69218;52.132;5.418;2023-04-24T02:23:01;4.35;;;1.83;;
79728;SDS011;69218;52.132;5.418;2023-04-24T02:25:28;3.58;;;1.80;;
79728;SDS011;69218;52.132;5.418;2023-04-24T02:27:54;3.22;;;1.75;;
79728;SDS011;69218;52.132;5.418;2023-04-24T02:30:21;4.43;;;1.90;;
79728;SDS011;69218;52.132;5.418;2023-04-24T02:32:47;4.28;;;1.90;;
79728;SDS011;69218;52.132;5.418;2023-04-24T02:35:14;4.93;;;1.60;;
79728;SDS011;69218;52.132;5.418;2023-04-24T02:37:42;5.05;;;1.63;;
79728;SDS011;69218;52.132;5.418;2023-04-24T02:40:08;4.22;;;2.10;;
79728;SDS011;69218;52.132;5.418;2023-04-24T02:42:35;4.18;;;1.70;;
79728;SDS011;69218;52.132;5.418;2023-04-24T02:45:01;2.65;;;1.25;;
79728;SDS011;69218;52.132;5.418;2023-04-24T02:47:28;2.80;;;1.17;;
79728;SDS011;69218;52.132;5.418;2023-04-24T02:49:54;3.15;;;1.60;;
79728;SDS011;69218;52.132;5.418;2023-04-24T02:52:21;4.40;;;1.83;;
79728;SDS011;69218;52.132;5.418;2023-04-24T02:54:47;4.03;;;1.85;;
79728;SDS011;69218;52.132;5.418;2023-04-24T02:57:14;3.65;;;1.50;;
79728;SDS011;69218;52.132;5.418;2023-04-24T02:59:41;4.07;;;1.67;;
79728;SDS011;69218;52.132;5.418;2023-04-24T03:02:08;5.40;;;1.50;;
79728;SDS011;69218;52.132;5.418;2023-04-24T03:04:34;3.15;;;1.63;;
79728;SDS011;69218;52.132;5.418;2023-04-24T03:07:01;3.97;;;1.52;;
79728;SDS011;69218;52.132;5.418;2023-04-24T03:09:27;3.20;;;1.65;;
79728;SDS011;69218;52.132;5.418;2023-04-24T03:11:54;3.50;;;1.65;;
79728;SDS011;69218;52.132;5.418;2023-04-24T03:14:21;3.10;;;1.42;;
79728;SDS011;69218;52.132;5.418;2023-04-24T03:16:48;3.80;;;1.50;;
79728;SDS011;69218;52.132;5.418;2023-04-24T03:19:14;3.58;;;1.48;;
79728;SDS011;69218;52.132;5.418;2023-04-24T03:21:40;3.67;;;1.33;;
79728;SDS011;69218;52.132;5.418;2023-04-24T03:24:08;3.75;;;1.60;;
79728;SDS011;69218;52.132;5.418;2023-04-24T03:26:35;3.05;;;1.75;;
79728;SDS011;69218;52.132;5.418;2023-04-24T03:29:01;4.50;;;1.70;;
79728;SDS011;69218;52.132;5.418;2023-04-24T03:31:28;3.95;;;1.58;;
79728;SDS011;69218;52.132;5.418;2023-04-24T03:33:54;3.72;;;1.83;;
79728;SDS011;69218;52.132;5.418;2023-04-24T03:36:21;3.33;;;1.40;;
79728;SDS011;69218;52.132;5.418;2023-04-24T03:38:47;3.70;;;1.63;;
79728;SDS011;69218;52.132;5.418;2023-04-24T03:41:14;3.70;;;1.65;;
79728;SDS011;69218;52.132;5.418;2023-04-24T03:43:40;3.03;;;1.30;;
79728;SDS011;69218;52.132;5.418;2023-04-24T03:46:06;3.55;;;1.58;;
79728;SDS011;69218;52.132;5.418;2023-04-24T03:48:35;3.55;;;1.60;;
79728;SDS011;69218;52.132;5.418;2023-04-24T03:51:02;3.80;;;1.92;;
79728;SDS011;69218;52.132;5.418;2023-04-24T03:53:28;3.65;;;1.63;;
79728;SDS011;69218;52.132;5.418;2023-04-24T03:55:55;3.65;;;2.00;;
79728;SDS011;69218;52.132;5.418;2023-04-24T03:58:21;3.35;;;1.65;;
79728;SDS011;69218;52.132;5.418;2023-04-24T04:00:48;3.80;;;1.52;;
79728;SDS011;69218;52.132;5.418;2023-04-24T04:03:15;4.05;;;1.70;;
79728;SDS011;69218;52.132;5.418;2023-04-24T04:05:42;4.80;;;1.73;;
79728;SDS011;69218;52.132;5.418;2023-04-24T04:08:09;3.45;;;1.50;;
79728;SDS011;69218;52.132;5.418;2023-04-24T04:10:35;3.67;;;1.67;;
79728;SDS011;69218;52.132;5.418;2023-04-24T04:13:02;3.13;;;1.35;;
79728;SDS011;69218;52.132;5.418;2023-04-24T04:15:28;2.70;;;0.98;;
79728;SDS011;69218;52.132;5.418;2023-04-24T04:17:55;3.00;;;1.40;;
79728;SDS011;69218;52.132;5.418;2023-04-24T04:20:21;2.95;;;0.90;;
79728;SDS011;69218;52.132;5.418;2023-04-24T04:22:48;2.78;;;1.13;;
79728;SDS011;69218;52.132;5.418;2023-04-24T04:25:14;3.17;;;1.10;;
79728;SDS011;69218;52.132;5.418;2023-04-24T04:27:40;3.38;;;1.02;;
79728;SDS011;69218;52.132;5.418;2023-04-24T04:30:08;3.58;;;1.23;;
79728;SDS011;69218;52.132;5.418;2023-04-24T04:32:35;3.30;;;1.48;;
79728;SDS011;69218;52.132;5.418;2023-04-24T04:35:02;3.80;;;1.17;;
79728;SDS011;69218;52.132;5.418;2023-04-24T04:37:29;4.55;;;1.40;;
79728;SDS011;69218;52.132;5.418;2023-04-24T04:39:57;3.13;;;1.40;;
79728;SDS011;69218;52.132;5.418;2023-04-24T04:42:27;3.15;;;1.40;;
79728;SDS011;69218;52.132;5.418;2023-04-24T04:44:54;4.60;;;1.77;;
79728;SDS011;69218;52.132;5.418;2023-04-24T04:47:22;3.92;;;1.67;;
79728;SDS011;69218;52.132;5.418;2023-04-24T04:49:49;6.13;;;1.80;;
79728;SDS011;69218;52.132;5.418;2023-04-24T04:52:18;5.43;;;2.22;;
79728;SDS011;69218;52.132;5.418;2023-04-24T04:54:44;4.30;;;1.42;;
79728;SDS011;69218;52.132;5.418;2023-04-24T04:57:12;5.38;;;2.10;;
79728;SDS011;69218;52.132;5.418;2023-04-24T04:59:39;4.85;;;2.25;;
79728;SDS011;69218;52.132;5.418;2023-04-24T05:02:07;5.88;;;2.45;;
79728;SDS011;69218;52.132;5.418;2023-04-24T05:04:34;5.25;;;2.00;;
79728;SDS011;69218;52.132;5.418;2023-04-24T05:07:01;5.07;;;2.13;;
79728;SDS011;69218;52.132;5.418;2023-04-24T05:09:27;5.22;;;2.38;;
79728;SDS011;69218;52.132;5.418;2023-04-24T05:11:55;4.22;;;1.75;;
79728;SDS011;69218;52.132;5.418;2023-04-24T05:14:22;4.75;;;1.90;;
79728;SDS011;69218;52.132;5.418;2023-04-24T05:16:48;4.35;;;1.38;;
79728;SDS011;69218;52.132;5.418;2023-04-24T05:19:15;4.15;;;1.63;;
79728;SDS011;69218;52.132;5.418;2023-04-24T05:21:44;4.00;;;1.55;;
79728;SDS011;69218;52.132;5.418;2023-04-24T05:24:11;4.60;;;1.95;;
79728;SDS011;69218;52.132;5.418;2023-04-24T05:26:38;4.38;;;1.83;;
79728;SDS011;69218;52.132;5.418;2023-04-24T05:29:04;5.32;;;2.17;;
79728;SDS011;69218;52.132;5.418;2023-04-24T05:31:31;6.07;;;1.65;;
79728;SDS011;69218;52.132;5.418;2023-04-24T05:33:57;4.20;;;1.75;;
79728;SDS011;69218;52.132;5.418;2023-04-24T05:36:25;5.90;;;2.38;;
79728;SDS011;69218;52.132;5.418;2023-04-24T05:41:19;4.35;;;1.73;;
79728;SDS011;69218;52.132;5.418;2023-04-24T05:43:47;3.85;;;1.33;;
79728;SDS011;69218;52.132;5.418;2023-04-24T05:46:13;3.97;;;1.60;;
79728;SDS011;69218;52.132;5.418;2023-04-24T05:48:40;5.45;;;1.70;;
79728;SDS011;69218;52.132;5.418;2023-04-24T05:51:06;4.00;;;1.52;;
79728;SDS011;69218;52.132;5.418;2023-04-24T05:53:33;6.05;;;1.80;;
79728;SDS011;69218;52.132;5.418;2023-04-24T05:55:59;4.88;;;1.75;;
79728;SDS011;69218;52.132;5.418;2023-04-24T05:58:26;4.25;;;1.67;;
79728;SDS011;69218;52.132;5.418;2023-04-24T06:00:52;4.47;;;1.55;;
79728;SDS011;69218;52.132;5.418;2023-04-24T06:03:19;4.10;;;1.42;;
79728;SDS011;69218;52.132;5.418;2023-04-24T06:05:45;3.20;;;0.70;;
79728;SDS011;69218;52.132;5.418;2023-04-24T06:08:13;3.97;;;1.45;;
79728;SDS011;69218;52.132;5.418;2023-04-24T06:10:39;3.75;;;1.30;;
79728;SDS011;69218;52.132;5.418;2023-04-24T06:13:06;2.60;;;1.02;;
79728;SDS011;69218;52.132;5.418;2023-04-24T06:15:32;3.90;;;1.13;;
79728;SDS011;69218;52.132;5.418;2023-04-24T06:17:59;2.22;;;0.82;;
79728;SDS011;69218;52.132;5.418;2023-04-24T06:20:26;2.47;;;0.80;;
79728;SDS011;69218;52.132;5.418;2023-04-24T06:22:52;3.05;;;0.80;;
79728;SDS011;69218;52.132;5.418;2023-04-24T06:25:20;2.47;;;0.60;;
79728;SDS011;69218;52.132;5.418;2023-04-24T06:27:46;2.00;;;0.57;;
79728;SDS011;69218;52.132;5.418;2023-04-24T06:30:13;2.63;;;0.70;;
79728;SDS011;69218;52.132;5.418;2023-04-24T06:32:39;3.05;;;0.57;;
79728;SDS011;69218;52.132;5.418;2023-04-24T06:35:06;2.08;;;0.40;;
79728;SDS011;69218;52.132;5.418;2023-04-24T06:37:34;3.40;;;0.40;;
79728;SDS011;69218;52.132;5.418;2023-04-24T06:40:00;1.40;;;0.50;;
79728;SDS011;69218;52.132;5.418;2023-04-24T06:42:27;2.63;;;0.65;;
79728;SDS011;69218;52.132;5.418;2023-04-24T06:44:53;2.40;;;0.85;;
79728;SDS011;69218;52.132;5.418;2023-04-24T06:47:20;3.05;;;1.10;;
79728;SDS011;69218;52.132;5.418;2023-04-24T06:49:46;3.83;;;1.52;;
79728;SDS011;69218;52.132;5.418;2023-04-24T06:52:13;6.50;;;2.55;;
79728;SDS011;69218;52.132;5.418;2023-04-24T06:54:41;6.55;;;3.05;;
79728;SDS011;69218;52.132;5.418;2023-04-24T06:57:08;8.23;;;3.40;;
79728;SDS011;69218;52.132;5.418;2023-04-24T06:59:34;8.45;;;3.78;;
79728;SDS011;69218;52.132;5.418;2023-04-24T07:02:01;7.32;;;3.35;;
79728;SDS011;69218;52.132;5.418;2023-04-24T07:04:27;8.68;;;4.13;;
79728;SDS011;69218;52.132;5.418;2023-04-24T07:06:54;8.27;;;3.95;;
79728;SDS011;69218;52.132;5.418;2023-04-24T07:09:22;7.93;;;3.92;;
79728;SDS011;69218;52.132;5.418;2023-04-24T07:11:50;8.15;;;3.70;;
79728;SDS011;69218;52.132;5.418;2023-04-24T07:14:16;10.60;;;4.07;;
79728;SDS011;69218;52.132;5.418;2023-04-24T07:16:43;6.75;;;3.55;;
79728;SDS011;69218;52.132;5.418;2023-04-24T07:19:09;10.57;;;4.22;;
79728;SDS011;69218;52.132;5.418;2023-04-24T07:21:36;8.93;;;3.92;;
79728;SDS011;69218;52.132;5.418;2023-04-24T07:24:02;11.95;;;4.65;;
79728;SDS011;69218;52.132;5.418;2023-04-24T07:26:29;10.32;;;4.15;;
79728;SDS011;69218;52.132;5.418;2023-04-24T07:28:57;6.68;;;3.72;;
79728;SDS011;69218;52.132;5.418;2023-04-24T07:31:23;9.60;;;4.72;;
79728;SDS011;69218;52.132;5.418;2023-04-24T07:33:50;9.00;;;4.07;;
79728;SDS011;69218;52.132;5.418;2023-04-24T07:36:16;8.02;;;3.83;;
79728;SDS011;69218;52.132;5.418;2023-04-24T07:38:45;8.73;;;4.32;;
79728;SDS011;69218;52.132;5.418;2023-04-24T07:41:12;10.23;;;4.10;;
79728;SDS011;69218;52.132;5.418;2023-04-24T07:43:39;8.25;;;4.03;;
79728;SDS011;69218;52.132;5.418;2023-04-24T07:46:06;7.88;;;4.43;;
79728;SDS011;69218;52.132;5.418;2023-04-24T07:48:34;7.97;;;3.58;;
79728;SDS011;69218;52.132;5.418;2023-04-24T07:51:01;6.93;;;4.20;;
79728;SDS011;69218;52.132;5.418;2023-04-24T07:53:27;7.15;;;3.40;;
79728;SDS011;69218;52.132;5.418;2023-04-24T07:55:57;9.98;;;3.63;;
79728;SDS011;69218;52.132;5.418;2023-04-24T07:58:23;7.10;;;3.92;;
79728;SDS011;69218;52.132;5.418;2023-04-24T08:00:50;7.95;;;3.60;;
79728;SDS011;69218;52.132;5.418;2023-04-24T08:03:17;9.40;;;3.35;;
79728;SDS011;69218;52.132;5.418;2023-04-24T08:05:45;9.07;;;3.80;;
79728;SDS011;69218;52.132;5.418;2023-04-24T08:08:13;9.77;;;4.10;;
79728;SDS011;69218;52.132;5.418;2023-04-24T08:10:39;7.30;;;3.53;;
79728;SDS011;69218;52.132;5.418;2023-04-24T08:13:06;10.40;;;3.88;;
79728;SDS011;69218;52.132;5.418;2023-04-24T08:15:33;5.95;;;2.85;;
79728;SDS011;69218;52.132;5.418;2023-04-24T08:17:59;7.40;;;2.85;;
79728;SDS011;69218;52.132;5.418;2023-04-24T08:20:26;7.57;;;3.35;;
79728;SDS011;69218;52.132;5.418;2023-04-24T08:22:52;7.68;;;2.85;;
79728;SDS011;69218;52.132;5.418;2023-04-24T08:25:20;7.28;;;3.08;;
79728;SDS011;69218;52.132;5.418;2023-04-24T08:27:46;6.60;;;2.38;;
79728;SDS011;69218;52.132;5.418;2023-04-24T08:30:13;6.28;;;2.33;;
79728;SDS011;69218;52.132;5.418;2023-04-24T08:32:39;7.20;;;1.88;;
79728;SDS011;69218;52.132;5.418;2023-04-24T08:35:06;5.78;;;2.17;;
79728;SDS011;69218;52.132;5.418;2023-04-24T08:37:35;4.78;;;2.30;;
79728;SDS011;69218;52.132;5.418;2023-04-24T08:40:03;5.78;;;1.70;;
79728;SDS011;69218;52.132;5.418;2023-04-24T08:42:37;7.72;;;1.95;;
79728;SDS011;69218;52.132;5.418;2023-04-24T08:45:06;8.38;;;2.13;;
79728;SDS011;69218;52.132;5.418;2023-04-24T08:47:33;6.75;;;1.67;;
79728;SDS011;69218;52.132;5.418;2023-04-24T08:50:04;5.47;;;1.70;;
79728;SDS011;69218;52.132;5.418;2023-04-24T08:52:33;5.05;;;1.40;;
79728;SDS011;69218;52.132;5.418;2023-04-24T08:55:00;5.55;;;1.50;;
79728;SDS011;69218;52.132;5.418;2023-04-24T08:57:28;6.68;;;1.27;;
79728;SDS011;69218;52.132;5.418;2023-04-24T08:59:55;6.07;;;1.65;;
79728;SDS011;69218;52.132;5.418;2023-04-24T09:02:23;6.20;;;1.20;;
79728;SDS011;69218;52.132;5.418;2023-04-24T09:04:52;5.30;;;1.50;;
79728;SDS011;69218;52.132;5.418;2023-04-24T09:07:19;4.00;;;1.02;;
79728;SDS011;69218;52.132;5.418;2023-04-24T09:09:48;6.07;;;0.82;;
79728;SDS011;69218;52.132;5.418;2023-04-24T09:12:17;8.95;;;1.30;;
79728;SDS011;69218;52.132;5.418;2023-04-24T09:14:44;4.60;;;1.20;;
79728;SDS011;69218;52.132;5.418;2023-04-24T09:17:12;4.28;;;1.40;;
79728;SDS011;69218;52.132;5.418;2023-04-24T09:19:39;3.53;;;1.10;;
79728;SDS011;69218;52.132;5.418;2023-04-24T09:22:07;9.35;;;1.52;;
79728;SDS011;69218;52.132;5.418;2023-04-24T09:24:35;7.35;;;1.20;;
79728;SDS011;69218;52.132;5.418;2023-04-24T09:27:02;6.90;;;1.48;;
79728;SDS011;69218;52.132;5.418;2023-04-24T09:29:28;4.97;;;1.20;;
79728;SDS011;69218;52.132;5.418;2023-04-24T09:31:55;7.63;;;1.38;;
79728;SDS011;69218;52.132;5.418;2023-04-24T09:34:22;6.72;;;1.13;;
79728;SDS011;69218;52.132;5.418;2023-04-24T09:36:50;6.50;;;1.30;;
79728;SDS011;69218;52.132;5.418;2023-04-24T09:39:17;10.48;;;2.17;;
79728;SDS011;69218;52.132;5.418;2023-04-24T09:41:53;5.32;;;1.10;;
79728;SDS011;69218;52.132;5.418;2023-04-24T09:44:23;5.40;;;1.00;;
79728;SDS011;69218;52.132;5.418;2023-04-24T09:46:55;3.20;;;0.88;;
79728;SDS011;69218;52.132;5.418;2023-04-24T09:49:26;4.13;;;0.93;;
79728;SDS011;69218;52.132;5.418;2023-04-24T09:52:02;5.53;;;1.30;;
79728;SDS011;69218;52.132;5.418;2023-04-24T09:54:30;4.82;;;1.17;;
79728;SDS011;69218;52.132;5.418;2023-04-24T09:56:57;5.32;;;1.52;;
79728;SDS011;69218;52.132;5.418;2023-04-24T09:59:23;4.90;;;1.10;;
79728;SDS011;69218;52.132;5.418;2023-04-24T10:01:50;5.90;;;0.90;;
79728;SDS011;69218;52.132;5.418;2023-04-24T10:06:48;6.45;;;1.17;;
79728;SDS011;69218;52.132;5.418;2023-04-24T10:09:16;6.07;;;0.82;;
79728;SDS011;69218;52.132;5.418;2023-04-24T10:11:44;3.30;;;0.70;;
79728;SDS011;69218;52.132;5.418;2023-04-24T10:14:13;5.03;;;1.00;;
79728;SDS011;69218;52.132;5.418;2023-04-24T10:16:41;3.78;;;1.10;;
79728;SDS011;69218;52.132;5.418;2023-04-24T10:19:11;2.72;;;0.80;;
79728;SDS011;69218;52.132;5.418;2023-04-24T10:21:40;4.28;;;0.93;;
79728;SDS011;69218;52.132;5.418;2023-04-24T10:24:13;2.67;;;0.93;;
79728;SDS011;69218;52.132;5.418;2023-04-24T10:26:41;5.28;;;0.90;;
79728;SDS011;69218;52.132;5.418;2023-04-24T10:29:09;3.15;;;0.95;;
79728;SDS011;69218;52.132;5.418;2023-04-24T10:31:38;3.45;;;0.75;;
79728;SDS011;69218;52.132;5.418;2023-04-24T10:34:06;3.15;;;0.90;;
79728;SDS011;69218;52.132;5.418;2023-04-24T10:36:34;4.85;;;0.90;;
79728;SDS011;69218;52.132;5.418;2023-04-24T10:39:02;2.00;;;0.43;;
79728;SDS011;69218;52.132;5.418;2023-04-24T10:41:32;2.53;;;0.40;;
79728;SDS011;69218;52.132;5.418;2023-04-24T10:44:11;2.20;;;0.40;;
79728;SDS011;69218;52.132;5.418;2023-04-24T10:49:09;2.35;;;0.40;;
79728;SDS011;69218;52.132;5.418;2023-04-24T10:54:22;1.52;;;0.40;;
79728;SDS011;69218;52.132;5.418;2023-04-24T10:59:47;3.80;;;0.40;;
79728;SDS011;69218;52.132;5.418;2023-04-24T11:02:15;1.35;;;0.35;;
79728;SDS011;69218;52.132;5.418;2023-04-24T11:04:43;1.40;;;0.30;;
79728;SDS011;69218;52.132;5.418;2023-04-24T11:07:10;2.85;;;0.40;;
79728;SDS011;69218;52.132;5.418;2023-04-24T11:09:37;1.40;;;0.45;;
79728;SDS011;69218;52.132;5.418;2023-04-24T11:17:36;2.97;;;0.40;;
79728;SDS011;69218;52.132;5.418;2023-04-24T11:22:52;4.55;;;0.63;;
79728;SDS011;69218;52.132;5.418;2023-04-24T11:25:24;2.25;;;0.50;;
79728;SDS011;69218;52.132;5.418;2023-04-24T11:27:51;2.35;;;0.55;;
79728;SDS011;69218;52.132;5.418;2023-04-24T11:30:30;3.60;;;0.30;;
79728;SDS011;69218;52.132;5.418;2023-04-24T11:33:02;0.88;;;0.30;;
79728;SDS011;69218;52.132;5.418;2023-04-24T11:35:34;2.35;;;0.45;;
79728;SDS011;69218;52.132;5.418;2023-04-24T11:38:05;3.40;;;0.60;;
79728;SDS011;69218;52.132;5.418;2023-04-24T11:40:49;1.90;;;0.45;;
79728;SDS011;69218;52.132;5.418;2023-04-24T11:43:16;3.05;;;0.45;;
79728;SDS011;69218;52.132;5.418;2023-04-24T11:45:47;3.85;;;0.70;;
79728;SDS011;69218;52.132;5.418;2023-04-24T11:48:18;1.70;;;0.35;;
79728;SDS011;69218;52.132;5.418;2023-04-24T11:50:48;3.13;;;0.40;;
79728;SDS011;69218;52.132;5.418;2023-04-24T11:53:14;1.33;;;0.32;;
79728;SDS011;69218;52.132;5.418;2023-04-24T11:55:41;3.58;;;0.68;;
79728;SDS011;69218;52.132;5.418;2023-04-24T11:58:07;1.45;;;0.20;;
79728;SDS011;69218;52.132;5.418;2023-04-24T12:00:34;2.17;;;0.28;;
79728;SDS011;69218;52.132;5.418;2023-04-24T12:03:06;1.10;;;0.22;;
79728;SDS011;69218;52.132;5.418;2023-04-24T12:05:33;1.33;;;0.30;;
79728;SDS011;69218;52.132;5.418;2023-04-24T12:08:01;1.83;;;0.20;;
79728;SDS011;69218;52.132;5.418;2023-04-24T12:10:29;2.17;;;0.45;;
79728;SDS011;69218;52.132;5.418;2023-04-24T12:12:57;1.02;;;0.20;;
79728;SDS011;69218;52.132;5.418;2023-04-24T12:15:25;1.88;;;0.40;;
79728;SDS011;69218;52.132;5.418;2023-04-24T12:17:53;2.10;;;0.60;;
79728;SDS011;69218;52.132;5.418;2023-04-24T12:20:24;1.95;;;0.40;;
79728;SDS011;69218;52.132;5.418;2023-04-24T12:22:58;1.63;;;0.28;;
79728;SDS011;69218;52.132;5.418;2023-04-24T12:25:29;1.42;;;0.35;;
79728;SDS011;69218;52.132;5.418;2023-04-24T12:30:30;1.25;;;0.40;;
79728;SDS011;69218;52.132;5.418;2023-04-24T12:32:58;3.28;;;0.50;;
79728;SDS011;69218;52.132;5.418;2023-04-24T12:35:30;4.35;;;0.65;;
79728;SDS011;69218;52.132;5.418;2023-04-24T12:38:09;4.68;;;0.40;;
79728;SDS011;69218;52.132;5.418;2023-04-24T12:40:38;2.25;;;0.35;;
79728;SDS011;69218;52.132;5.418;2023-04-24T12:43:15;4.32;;;0.50;;
79728;SDS011;69218;52.132;5.418;2023-04-24T12:45:42;3.83;;;0.50;;
79728;SDS011;69218;52.132;5.418;2023-04-24T12:48:09;3.90;;;0.57;;
79728;SDS011;69218;52.132;5.418;2023-04-24T12:50:35;3.28;;;0.82;;
79728;SDS011;69218;52.132;5.418;2023-04-24T12:53:02;4.85;;;0.47;;
79728;SDS011;69218;52.132;5.418;2023-04-24T12:55:28;4.95;;;0.63;;
79728;SDS011;69218;52.132;5.418;2023-04-24T12:57:55;3.15;;;0.55;;
79728;SDS011;69218;52.132;5.418;2023-04-24T13:00:22;2.72;;;0.70;;
79728;SDS011;69218;52.132;5.418;2023-04-24T13:02:48;3.88;;;0.75;;
79728;SDS011;69218;52.132;5.418;2023-04-24T13:05:15;4.32;;;0.50;;
79728;SDS011;69218;52.132;5.418;2023-04-24T13:07:42;4.90;;;0.77;;
79728;SDS011;69218;52.132;5.418;2023-04-24T13:10:09;4.07;;;0.63;;
79728;SDS011;69218;52.132;5.418;2023-04-24T13:12:36;3.97;;;0.85;;
79728;SDS011;69218;52.132;5.418;2023-04-24T13:15:03;4.30;;;0.80;;
79728;SDS011;69218;52.132;5.418;2023-04-24T13:17:30;4.65;;;0.57;;
79728;SDS011;69218;52.132;5.418;2023-04-24T13:19:56;4.70;;;1.00;;
79728;SDS011;69218;52.132;5.418;2023-04-24T13:22:23;4.45;;;0.60;;
79728;SDS011;69218;52.132;5.418;2023-04-24T13:24:49;5.10;;;1.15;;
79728;SDS011;69218;52.132;5.418;2023-04-24T13:27:16;6.57;;;1.40;;
79728;SDS011;69218;52.132;5.418;2023-04-24T13:29:43;4.50;;;0.90;;
79728;SDS011;69218;52.132;5.418;2023-04-24T13:32:09;4.60;;;0.93;;
79728;SDS011;69218;52.132;5.418;2023-04-24T13:34:36;3.83;;;0.88;;
79728;SDS011;69218;52.132;5.418;2023-04-24T13:37:03;6.55;;;1.30;;
79728;SDS011;69218;52.132;5.418;2023-04-24T13:39:30;6.15;;;1.02;;
79728;SDS011;69218;52.132;5.418;2023-04-24T13:41:58;5.95;;;0.93;;
79728;SDS011;69218;52.132;5.418;2023-04-24T13:44:24;5.38;;;1.23;;
79728;SDS011;69218;52.132;5.418;2023-04-24T13:46:53;6.25;;;1.20;;
79728;SDS011;69218;52.132;5.418;2023-04-24T13:49:22;4.75;;;1.13;;
79728;SDS011;69218;52.132;5.418;2023-04-24T13:51:53;5.47;;;1.35;;
79728;SDS011;69218;52.132;5.418;2023-04-24T13:54:21;4.80;;;0.98;;
79728;SDS011;69218;52.132;5.418;2023-04-24T13:56:49;6.05;;;1.15;;
79728;SDS011;69218;52.132;5.418;2023-04-24T13:59:16;4.07;;;1.05;;
79728;SDS011;69218;52.132;5.418;2023-04-24T14:01:43;5.25;;;1.23;;
79728;SDS011;69218;52.132;5.418;2023-04-24T14:04:11;7.13;;;1.20;;
79728;SDS011;69218;52.132;5.418;2023-04-24T14:06:39;4.97;;;1.13;;
79728;SDS011;69218;52.132;5.418;2023-04-24T14:09:06;6.43;;;1.10;;
79728;SDS011;69218;52.132;5.418;2023-04-24T14:11:33;6.93;;;1.63;;
79728;SDS011;69218;52.132;5.418;2023-04-24T14:14:00;4.82;;;1.10;;
79728;SDS011;69218;52.132;5.418;2023-04-24T14:16:28;6.03;;;0.95;;
79728;SDS011;69218;52.132;5.418;2023-04-24T14:18:54;5.53;;;1.45;;
79728;SDS011;69218;52.132;5.418;2023-04-24T14:21:21;3.80;;;1.05;;
79728;SDS011;69218;52.132;5.418;2023-04-24T14:23:47;6.00;;;1.45;;
79728;SDS011;69218;52.132;5.418;2023-04-24T14:26:14;3.47;;;1.23;;
79728;SDS011;69218;52.132;5.418;2023-04-24T14:28:40;8.77;;;1.23;;
79728;SDS011;69218;52.132;5.418;2023-04-24T14:31:07;6.55;;;1.23;;
79728;SDS011;69218;52.132;5.418;2023-04-24T14:33:34;5.75;;;1.65;;
79728;SDS011;69218;52.132;5.418;2023-04-24T14:36:00;4.53;;;1.27;;
79728;SDS011;69218;52.132;5.418;2023-04-24T14:38:29;6.80;;;1.23;;
79728;SDS011;69218;52.132;5.418;2023-04-24T14:40:56;5.93;;;1.30;;
79728;SDS011;69218;52.132;5.418;2023-04-24T14:43:33;6.78;;;1.73;;
79728;SDS011;69218;52.132;5.418;2023-04-24T14:46:01;3.53;;;1.58;;
79728;SDS011;69218;52.132;5.418;2023-04-24T14:48:28;8.70;;;1.65;;
79728;SDS011;69218;52.132;5.418;2023-04-24T14:50:55;10.40;;;1.85;;
79728;SDS011;69218;52.132;5.418;2023-04-24T14:53:21;5.70;;;1.27;;
79728;SDS011;69218;52.132;5.418;2023-04-24T14:55:48;6.60;;;1.65;;
79728;SDS011;69218;52.132;5.418;2023-04-24T14:58:14;4.97;;;1.15;;
79728;SDS011;69218;52.132;5.418;2023-04-24T15:00:41;4.38;;;1.20;;
79728;SDS011;69218;52.132;5.418;2023-04-24T15:03:07;6.78;;;1.45;;
79728;SDS011;69218;52.132;5.418;2023-04-24T15:05:35;9.02;;;1.40;;
79728;SDS011;69218;52.132;5.418;2023-04-24T15:08:02;4.55;;;1.25;;
79728;SDS011;69218;52.132;5.418;2023-04-24T15:10:28;6.53;;;1.50;;
79728;SDS011;69218;52.132;5.418;2023-04-24T15:12:55;5.28;;;1.45;;